BMG - Monroe County

Pirep is a free, collaborative database of all public and private airports located within the United States. All pilots are welcome to contribute, edit, and improve any airport they have local knowledge about, no registration required.
Are you familiar with this airport? Help out other pilots by adding your local knowledge.
Uploaded photos will be licensed under a CC BY-SA 4.0 license. Please only upload photos you have the rights to use.
Tags
Public
Undocu­mented
METAR / TAF
Edit Tags
Food
Camping
Lodging
Car Rental
Bicycles
Swimming
Golfing
Fishing
Hot Springs
Museum
Flying Clubs
Airpark
Upcoming Events
No upcoming events. Is anything happening here soon?
*
*
*

Where exactly on/near the airport is this event taking place?

Is there a webpage with more information for this event?

Who should be contacted for more information?

What is this event all about?

Repeat every
Description
Transient Parking
Fuel Location
Landing & Tie-down Fees
Crew Car Availability
Flying Clubs
WiFi Access
Airport Statistics
Location: Bloomington, IN
Elevation: 845ft
Sectional: St Louis
Activation date: Mar 1942
Fuel: 100LL, A (prices)
Runway 17/35: 6,500ft
Runway 06/24: 3,798ft
Access: Open to the public
Current Weather — MVFR
  • Weather data is strictly informational and not for flight planning purposes.
  • METAR
    2024-04-24 12:04:00 EDT
    Ceiling Wind Temperature Dewpoint Weather Visbility
    1,300ft 360° @ 10kt 51°F 42°F N/A 10SM
    Clouds: Broken @ 1,300ft
    Raw: KBMG 241604Z 36010KT 10SM BKN013 11/06 A3018 RMK AO2 T01110061
  • TAF
    2024-04-24 08:00:00 EDT – 2024-04-24 12:00:00 EDT
    Ceiling Wind Weather Visbility
    Sky clear Variable Fog patches 6SM
    Clouds: Scattered @ 400ft
    Raw: KBMG 241120Z 2412/2512 VRB03KT 6SM BCFG SCT004 FM241600 35010G18KT P6SM SCT015 FM250000 02006KT P6SM FEW030 AMD LTD TO CLD VIS AND WIND TIL 241300
  • TAF
    2024-04-24 12:00:00 EDT – 2024-04-24 20:00:00 EDT
    Ceiling Wind Weather Visbility
    Sky clear 350° @ 10kt, gusts 18kt N/A 6SM
    Clouds: Scattered @ 1,500ft
    Raw: KBMG 241120Z 2412/2512 VRB03KT 6SM BCFG SCT004 FM241600 35010G18KT P6SM SCT015 FM250000 02006KT P6SM FEW030 AMD LTD TO CLD VIS AND WIND TIL 241300
  • TAF
    2024-04-24 20:00:00 EDT – 2024-04-25 08:00:00 EDT
    Ceiling Wind Weather Visbility
    Sky clear 20° @ 6kt N/A 6SM
    Clouds: Few @ 3,000ft
    Raw: KBMG 241120Z 2412/2512 VRB03KT 6SM BCFG SCT004 FM241600 35010G18KT P6SM SCT015 FM250000 02006KT P6SM FEW030 AMD LTD TO CLD VIS AND WIND TIL 241300
Click/tap to add an annotation marker to the map
Airport Webcams
No webcams added yet.
Direct links to live image URLs will be displayed inline on this page. URLs to separate webpages will be linked to.
URL:
Direct links to live image URLs will be displayed inline on this page. URLs to separate webpages will be linked to.
URL:
Remarks
  • Clsd to sked acr ops gtr than 9 pax seats. unsked acr ops gtr than 30 pax seats ppr - ops mgr 812-825-5406 or 812-606-6659 at night or on wkend & hol. index b arff capability avbl on req.
  • Sfc cond unmnt mon-fri 1600-0800 & wkend.
  • For cd ctc hulman apch at 812-877-7581.
  • When atct clsd actvt malsr rwy 35; reil rwy 17; papi rwy 24; mirl rwy 06/24; hirl rwy 17/35 - ctaf. papi rwy 17 on consly.
  • Unsked acr with at least 31 pax seats na.
Comments
Leave a comment What was your experience like at this airport?